createdAt,value
2019-03-18T00:01:18.781Z,100019.04
2019-03-18T00:03:45.938Z,100019.06
2019-03-18T00:06:13.066Z,100024.13
2019-03-18T00:08:40.587Z,100021.42
2019-03-18T00:11:07.698Z,100020.95
2019-03-18T00:13:34.801Z,100028.54
2019-03-18T00:16:01.844Z,100030.73
2019-03-18T00:18:29.479Z,100032.17
2019-03-18T00:20:56.571Z,100043.09
2019-03-18T00:23:23.643Z,100050.51
2019-03-18T00:25:50.682Z,100050.58
2019-03-18T00:28:18.128Z,100047.25
2019-03-18T00:30:45.158Z,100051.02
2019-03-18T00:33:12.230Z,100059.66
2019-03-18T00:35:39.633Z,100068.38
2019-03-18T00:38:06.688Z,100074.56
2019-03-18T00:40:33.754Z,100079.34
2019-03-18T00:43:01.471Z,100074.03
2019-03-18T00:45:28.615Z,100063.95
2019-03-18T00:47:55.665Z,100073.63
2019-03-18T00:50:22.754Z,100074.53
2019-03-18T00:52:49.831Z,100075.18
2019-03-18T00:55:16.969Z,100076.51
2019-03-18T00:57:45.076Z,100079.80
2019-03-18T01:00:12.741Z,100078.58
2019-03-18T01:02:39.799Z,100084.50
2019-03-18T01:05:07.383Z,100088.45
2019-03-18T01:07:34.533Z,100084.70
2019-03-18T01:10:01.576Z,100090.10
2019-03-18T01:12:29.202Z,100081.57
2019-03-18T01:14:56.268Z,100079.75
2019-03-18T01:17:23.309Z,100083.36
2019-03-18T01:19:50.679Z,100070.34
2019-03-18T01:22:17.736Z,100058.34
2019-03-18T01:24:44.816Z,100062.52
2019-03-18T01:27:11.923Z,100058.61
2019-03-18T01:29:38.996Z,100056.11
2019-03-18T01:32:06.013Z,100053.98
2019-03-18T01:34:33.109Z,100057.43
2019-03-18T01:37:00.160Z,100054.73
2019-03-18T01:39:27.189Z,100045.05
2019-03-18T01:41:54.352Z,100059.85
2019-03-18T01:44:21.413Z,100064.14
2019-03-18T01:46:48.939Z,100059.15
2019-03-18T01:49:15.962Z,100063.80
2019-03-18T01:51:42.992Z,100067.48
2019-03-18T01:54:10.015Z,100065.62
2019-03-18T01:56:37.126Z,100077.48
2019-03-18T01:59:04.196Z,100082.62
2019-03-18T02:01:31.225Z,100087.23
2019-03-18T02:03:58.330Z,100075.44
2019-03-18T02:06:25.372Z,100078.44
2019-03-18T02:08:52.409Z,100081.34
2019-03-18T02:11:19.460Z,100071.32
2019-03-18T02:13:47.621Z,100067.64
2019-03-18T02:16:14.632Z,100082.92
2019-03-18T02:18:41.748Z,100067.14
2019-03-18T02:21:08.749Z,100076.31
2019-03-18T02:23:36.107Z,100068.18
2019-03-18T02:26:03.173Z,100075.67
2019-03-18T02:28:31.519Z,100080.48
2019-03-18T02:30:58.558Z,100090.13
2019-03-18T02:33:26.878Z,100095.67
2019-03-18T02:35:54.282Z,100104.53
2019-03-18T02:38:22.828Z,100102.73
2019-03-18T02:40:49.914Z,100094.42
2019-03-18T02:43:18.030Z,100089.30
2019-03-18T02:45:45.077Z,100090.34
2019-03-18T02:48:12.189Z,100098.55
2019-03-18T02:50:39.784Z,100097.23
2019-03-18T02:53:07.926Z,100091.66
2019-03-18T02:55:35.001Z,100093.71
2019-03-18T02:58:02.092Z,100095.33
2019-03-18T03:00:29.283Z,100095.87
2019-03-18T03:02:56.368Z,100092.77
2019-03-18T03:05:23.835Z,100096.58
2019-03-18T03:07:50.863Z,100095.67
2019-03-18T03:10:17.899Z,100098.95
2019-03-18T03:12:46.004Z,100109.66
2019-03-18T03:15:13.335Z,100113.57
2019-03-18T03:17:40.412Z,100121.16
2019-03-18T03:20:08.059Z,100121.78
2019-03-18T03:22:35.115Z,100126.50
2019-03-18T03:25:02.254Z,100127.16
2019-03-18T03:27:36.954Z,100120.81
2019-03-18T03:30:04.815Z,100133.34
2019-03-18T03:32:31.905Z,100139.39
2019-03-18T03:34:59.602Z,100139.30
2019-03-18T03:37:26.615Z,100132.20
2019-03-18T03:39:53.638Z,100132.09
2019-03-18T03:42:21.805Z,100133.48
2019-03-18T03:44:48.911Z,100138.20
2019-03-18T03:47:17.117Z,100134.55
2019-03-18T03:49:44.557Z,100142.91
2019-03-18T03:52:11.620Z,100150.70
2019-03-18T03:54:38.761Z,100149.04
2019-03-18T03:57:06.951Z,100154.19
2019-03-18T03:59:34.074Z,100155.41
2019-03-18T04:02:02.349Z,100161.45
2019-03-18T04:04:29.485Z,100156.52
2019-03-18T04:06:57.151Z,100145.90
2019-03-18T04:09:24.409Z,100164.43
2019-03-18T04:11:51.414Z,100167.23
2019-03-18T04:14:18.912Z,100170.20
2019-03-18T04:17:00.903Z,100173.34
2019-03-18T04:19:14.885Z,100175.55
2019-03-18T04:21:42.282Z,100179.25
2019-03-18T04:24:44.480Z,100179.63
2019-03-18T04:27:13.069Z,100178.96
2019-03-18T04:29:40.106Z,100182.70
2019-03-18T04:32:07.558Z,100175.43
2019-03-18T04:34:34.654Z,100170.72
2019-03-18T04:37:02.762Z,100163.09
2019-03-18T04:39:30.823Z,100163.57
2019-03-18T04:41:57.992Z,100156.35
2019-03-18T04:44:25.732Z,100154.23
2019-03-18T04:46:53.085Z,100161.25
2019-03-18T04:49:20.182Z,100157.51
2019-03-18T04:51:47.541Z,100159.63
2019-03-18T04:54:14.703Z,100167.14
2019-03-18T04:56:41.755Z,100164.00
2019-03-18T04:59:09.269Z,100168.58
2019-03-18T05:01:36.403Z,100172.43
2019-03-18T05:04:03.496Z,100174.27
2019-03-18T05:06:31.608Z,100176.58
2019-03-18T05:08:59.049Z,100185.02
2019-03-18T05:11:27.897Z,100190.63
2019-03-18T05:13:55.266Z,100190.15
2019-03-18T05:16:23.600Z,100194.00
2019-03-18T05:18:52.470Z,100193.20
2019-03-18T05:21:20.728Z,100201.92
2019-03-18T05:23:48.206Z,100205.77
2019-03-18T05:26:15.313Z,100202.50
2019-03-18T05:28:42.376Z,100212.48
2019-03-18T05:31:09.733Z,100215.27
2019-03-18T05:33:36.801Z,100210.88
2019-03-18T05:36:03.832Z,100219.78
2019-03-18T05:38:31.224Z,100218.02
2019-03-18T05:40:58.567Z,100229.58
2019-03-18T05:43:25.614Z,100229.53
2019-03-18T05:45:52.655Z,100226.57
2019-03-18T05:48:20.113Z,100237.58
2019-03-18T05:50:48.307Z,100238.02
2019-03-18T05:53:15.332Z,100240.70
2019-03-18T05:55:42.713Z,100236.89
2019-03-18T05:58:09.732Z,100246.80
2019-03-18T06:00:36.747Z,100249.32
2019-03-18T06:07:36.633Z,100258.84
2019-03-18T06:10:04.845Z,100264.86
2019-03-18T06:12:31.904Z,100266.53
2019-03-18T06:15:00.463Z,100275.41
2019-03-18T06:17:28.208Z,100277.97
2019-03-18T06:19:55.325Z,100278.19
2019-03-18T06:22:22.476Z,100281.95
2019-03-18T06:24:50.082Z,100284.50
2019-03-18T06:27:19.114Z,100286.24
2019-03-18T06:29:46.214Z,100284.44
2019-03-18T06:32:13.842Z,100279.97
2019-03-18T06:34:40.924Z,100279.73
2019-03-18T06:37:08.180Z,100286.73
2019-03-18T06:39:35.707Z,100296.55
2019-03-18T06:42:02.786Z,100296.47
2019-03-18T06:44:29.996Z,100297.22
2019-03-18T06:46:57.098Z,100295.61
2019-03-18T06:49:26.598Z,100299.77
2019-03-18T06:51:53.751Z,100304.06
2019-03-18T06:54:21.282Z,100308.92
2019-03-18T06:56:51.713Z,100306.91
2019-03-18T06:59:18.732Z,100318.10
2019-03-18T07:01:45.798Z,100317.47
2019-03-18T07:04:12.868Z,100317.69
2019-03-18T07:06:43.202Z,100306.92
2019-03-18T07:09:13.666Z,100319.58
2019-03-18T07:11:40.726Z,100322.44
2019-03-18T07:14:09.213Z,100328.41
2019-03-18T07:16:37.498Z,100335.39
2019-03-18T07:19:15.438Z,100338.22
2019-03-18T07:21:42.621Z,100339.92
2019-03-18T07:24:11.452Z,100349.53
2019-03-18T07:26:38.477Z,100347.17
2019-03-18T07:29:08.975Z,100349.93
2019-03-18T07:31:51.089Z,100357.56
2019-03-18T07:34:19.392Z,100360.23
2019-03-18T07:36:46.450Z,100355.14
2019-03-18T07:39:13.485Z,100352.79
2019-03-18T07:41:40.537Z,100354.97
2019-03-18T07:44:08.103Z,100364.71
2019-03-18T07:46:35.233Z,100359.94
2019-03-18T07:49:02.357Z,100367.41
2019-03-18T07:51:29.838Z,100362.86
2019-03-18T07:53:56.834Z,100377.73
2019-03-18T07:56:23.888Z,100382.06
2019-03-18T07:58:50.936Z,100380.91
2019-03-18T08:01:17.983Z,100395.98
2019-03-18T08:03:45.092Z,100395.58
2019-03-18T08:06:13.301Z,100395.41
2019-03-18T08:08:40.429Z,100402.23
2019-03-18T08:11:07.464Z,100405.17
2019-03-18T08:13:34.563Z,100411.84
2019-03-18T08:16:01.966Z,100415.98
2019-03-18T08:18:29.381Z,100418.23
2019-03-18T08:20:57.636Z,100419.84
2019-03-18T08:23:24.703Z,100422.41
2019-03-18T08:25:52.737Z,100430.50
2019-03-18T08:28:19.768Z,100432.84
2019-03-18T08:30:46.830Z,100436.16
2019-03-18T08:33:14.043Z,100435.06
2019-03-18T08:35:41.081Z,100433.37
2019-03-18T08:38:08.117Z,100438.70
2019-03-18T08:40:35.330Z,100432.38
2019-03-18T08:43:02.712Z,100432.03
2019-03-18T08:45:29.819Z,100441.97
2019-03-18T08:47:58.779Z,100436.66
2019-03-18T08:50:25.830Z,100443.96
2019-03-18T08:52:53.265Z,100430.63
2019-03-18T08:55:20.763Z,100449.71
2019-03-18T08:57:47.809Z,100454.88
2019-03-18T09:00:15.793Z,100451.66
2019-03-18T09:02:43.109Z,100451.17
2019-03-18T09:05:10.846Z,100449.70
2019-03-18T09:07:37.875Z,100453.98
2019-03-18T09:10:06.298Z,100444.22
2019-03-18T09:12:33.374Z,100447.69
2019-03-18T09:15:00.407Z,100456.20
2019-03-18T09:17:27.515Z,100465.45
2019-03-18T09:19:54.584Z,100462.20
2019-03-18T09:22:21.630Z,100461.57
2019-03-18T09:24:49.201Z,100474.31
2019-03-18T09:27:16.255Z,100478.55
2019-03-18T09:29:43.395Z,100481.45
2019-03-18T09:32:10.882Z,100478.79
2019-03-18T09:34:37.924Z,100487.38
2019-03-18T09:37:15.473Z,100488.45
2019-03-18T09:39:43.031Z,100487.31
2019-03-18T09:42:10.175Z,100488.67
2019-03-18T09:44:37.548Z,100488.51
2019-03-18T09:47:04.616Z,100493.09
2019-03-18T09:49:31.839Z,100486.77
2019-03-18T09:51:59.297Z,100502.97
2019-03-18T09:54:28.753Z,100506.75
2019-03-18T09:56:55.837Z,100506.94
2019-03-18T09:59:23.660Z,100508.92
2019-03-18T10:01:51.057Z,100518.95
2019-03-18T10:04:18.087Z,100513.42
2019-03-18T10:06:48.398Z,100513.47
2019-03-18T10:09:15.668Z,100513.64
2019-03-18T10:11:42.758Z,100524.11
2019-03-18T10:14:10.138Z,100528.40
2019-03-18T10:16:38.440Z,100527.23
2019-03-18T10:19:05.565Z,100534.26
2019-03-18T10:21:33.036Z,100525.83
2019-03-18T10:24:00.082Z,100526.99
2019-03-18T10:26:28.815Z,100533.30
2019-03-18T10:28:55.969Z,100528.78
2019-03-18T10:31:23.939Z,100545.36
2019-03-18T10:33:51.024Z,100556.77
2019-03-18T10:36:23.148Z,100555.40
2019-03-18T10:38:52.749Z,100543.58
2019-03-18T10:41:19.348Z,100543.22
2019-03-18T10:43:46.586Z,100543.81
2019-03-18T10:46:15.500Z,100543.48
2019-03-18T10:48:42.869Z,100542.17
2019-03-18T10:51:10.103Z,100534.70
2019-03-18T10:53:37.241Z,100532.20
2019-03-18T10:56:08.113Z,100534.57
2019-03-18T10:58:33.896Z,100532.89
2019-03-18T11:01:01.322Z,100543.00
2019-03-18T11:03:28.355Z,100544.05
2019-03-18T11:05:55.511Z,100536.95
2019-03-18T11:08:24.412Z,100549.41
2019-03-18T11:10:51.502Z,100541.30
2019-03-18T11:13:19.089Z,100541.28
2019-03-18T11:15:47.407Z,100539.59
2019-03-18T11:18:14.932Z,100539.60
2019-03-18T11:20:42.154Z,100542.51
2019-03-18T11:23:09.492Z,100538.83
2019-03-18T11:25:36.549Z,100535.81
2019-03-18T11:28:03.660Z,100528.99
2019-03-18T11:30:30.706Z,100525.59
2019-03-18T11:32:57.857Z,100524.37
2019-03-18T11:35:24.943Z,100525.70
2019-03-18T11:37:52.573Z,100527.53
2019-03-18T11:40:20.176Z,100527.22
2019-03-18T11:42:47.277Z,100550.14
2019-03-18T11:45:14.748Z,100530.38
2019-03-18T11:47:43.121Z,100541.55
2019-03-18T11:50:11.812Z,100538.06
2019-03-18T11:52:39.122Z,100546.33
2019-03-18T11:55:09.382Z,100550.55
2019-03-18T11:57:36.761Z,100542.28
2019-03-18T12:00:05.626Z,100538.37
2019-03-18T12:02:32.759Z,100536.10
2019-03-18T12:05:00.512Z,100527.62
2019-03-18T12:07:27.594Z,100522.38
2019-03-18T12:09:54.759Z,100525.82
2019-03-18T12:12:22.150Z,100525.16
2019-03-18T12:14:49.183Z,100520.68
2019-03-18T12:17:16.449Z,100518.83
2019-03-18T12:19:44.008Z,100518.92
2019-03-18T12:22:11.076Z,100518.86
2019-03-18T12:24:38.187Z,100508.28
2019-03-18T12:27:05.269Z,100514.92
2019-03-18T12:29:32.475Z,100511.31
2019-03-18T12:32:00.280Z,100507.62
2019-03-18T12:34:27.464Z,100517.84
2019-03-18T12:36:54.543Z,100500.24
2019-03-18T12:39:24.601Z,100502.50
2019-03-18T12:41:51.047Z,100498.45
2019-03-18T12:44:18.101Z,100495.47
2019-03-18T12:46:45.929Z,100497.80
2019-03-18T12:49:13.077Z,100496.95
2019-03-18T12:51:40.255Z,100492.46
2019-03-18T12:54:09.089Z,100492.09
2019-03-18T12:56:36.239Z,100494.83
2019-03-18T12:59:03.702Z,100493.53
2019-03-18T13:01:30.858Z,100484.44
2019-03-18T13:03:58.082Z,100475.45
2019-03-18T13:06:27.372Z,100487.85
2019-03-18T13:08:54.456Z,100466.23
2019-03-18T13:11:23.977Z,100479.33
2019-03-18T13:13:51.191Z,100482.41
2019-03-18T13:16:18.445Z,100489.91
2019-03-18T13:18:45.661Z,100483.11
2019-03-18T13:21:13.074Z,100485.58
2019-03-18T13:23:40.246Z,100476.62
2019-03-18T13:26:07.382Z,100482.78
2019-03-18T13:28:35.646Z,100470.72
2019-03-18T13:31:02.803Z,100475.88
2019-03-18T13:33:29.935Z,100486.48
2019-03-18T13:36:00.503Z,100485.76
2019-03-18T13:38:27.583Z,100487.17
2019-03-18T13:40:54.740Z,100478.81
2019-03-18T13:43:22.191Z,100463.29
2019-03-18T13:45:55.135Z,100472.64
2019-03-18T13:48:19.473Z,100481.25
2019-03-18T13:50:46.651Z,100481.36
2019-03-18T13:53:13.996Z,100491.95
2019-03-18T13:55:41.094Z,100496.54
2019-03-18T13:58:08.259Z,100486.69
2019-03-18T14:00:41.790Z,100485.34
2019-03-18T14:06:45.851Z,100496.68
2019-03-18T14:09:12.951Z,100502.23
2019-03-18T14:11:40.046Z,100499.03
2019-03-18T14:14:07.315Z,100491.36
2019-03-18T14:16:35.495Z,100501.27
2019-03-18T14:19:02.936Z,100496.80
2019-03-18T14:21:33.557Z,100514.63
2019-03-18T14:24:01.042Z,100503.68
2019-03-18T14:26:28.149Z,100509.88
2019-03-18T14:28:55.239Z,100520.23
2019-03-18T14:31:22.311Z,100517.89
2019-03-18T14:33:49.367Z,100530.30
2019-03-18T14:36:16.446Z,100528.73
2019-03-18T14:38:52.205Z,100518.77
2019-03-18T14:41:19.901Z,100521.66
2019-03-18T14:43:46.967Z,100528.73
2019-03-18T14:46:14.787Z,100526.88
2019-03-18T14:48:43.294Z,100528.75
2019-03-18T14:51:10.385Z,100535.84
2019-03-18T14:53:37.425Z,100531.84
2019-03-18T14:56:04.586Z,100528.45
2019-03-18T14:58:32.974Z,100534.44
2019-03-18T15:01:01.450Z,100535.20
2019-03-18T15:03:28.823Z,100530.56
2019-03-18T15:05:56.609Z,100536.17
2019-03-18T15:08:23.711Z,100536.19
2019-03-18T15:10:50.842Z,100537.20
2019-03-18T15:13:30.067Z,100532.63
2019-03-18T15:15:47.667Z,100532.17
2019-03-18T15:18:15.059Z,100535.97
2019-03-18T15:20:42.104Z,100543.30
2019-03-18T15:23:10.312Z,100544.95
2019-03-18T15:25:38.013Z,100536.52
2019-03-18T15:28:05.049Z,100533.52
2019-03-18T15:30:32.133Z,100532.43
2019-03-18T15:32:59.800Z,100531.60
2019-03-18T15:35:26.891Z,100532.84
2019-03-18T15:37:54.161Z,100539.09
2019-03-18T15:40:21.339Z,100537.05
2019-03-18T15:42:48.530Z,100536.92
2019-03-18T15:45:16.263Z,100540.02
2019-03-18T15:47:44.564Z,100544.95
2019-03-18T15:50:13.917Z,100546.82
2019-03-18T15:52:42.094Z,100546.50
2019-03-18T15:55:09.443Z,100537.77
2019-03-18T15:57:36.728Z,100548.87
2019-03-18T16:00:05.738Z,100552.94
2019-03-18T16:02:34.058Z,100552.71
2019-03-18T16:05:01.094Z,100557.34
2019-03-18T16:07:28.861Z,100564.53
2019-03-18T16:09:56.019Z,100568.90
2019-03-18T16:12:24.406Z,100576.35
2019-03-18T16:14:51.866Z,100597.55
2019-03-18T16:17:19.026Z,100595.70
2019-03-18T16:19:46.129Z,100596.44
2019-03-18T16:22:23.380Z,100605.69
2019-03-18T16:24:44.121Z,100606.64
2019-03-18T16:27:11.654Z,100608.84
2019-03-18T16:29:38.745Z,100610.77
2019-03-18T16:32:11.124Z,100610.98
2019-03-18T16:34:34.985Z,100609.58
2019-03-18T16:37:03.251Z,100600.88
2019-03-18T16:39:30.973Z,100607.30
2019-03-18T16:41:58.096Z,100614.98
2019-03-18T16:44:26.961Z,100610.78
2019-03-18T16:46:54.083Z,100613.00
2019-03-18T16:49:21.257Z,100617.16
2019-03-18T16:51:48.414Z,100613.72
2019-03-18T16:54:15.852Z,100621.10
2019-03-18T16:56:42.920Z,100627.36
2019-03-18T16:59:10.016Z,100633.02
2019-03-18T17:01:37.749Z,100639.41
2019-03-18T17:04:05.009Z,100644.37
2019-03-18T17:06:33.280Z,100641.45
2019-03-18T17:09:00.371Z,100647.57
2019-03-18T17:11:27.615Z,100652.58
2019-03-18T17:13:54.666Z,100657.90
2019-03-18T17:16:22.176Z,100659.77
2019-03-18T17:18:49.266Z,100660.02
2019-03-18T17:21:16.321Z,100668.92
2019-03-18T17:23:43.452Z,100667.89
2019-03-18T17:26:11.997Z,100677.78
2019-03-18T17:28:39.390Z,100677.40
2019-03-18T17:31:07.211Z,100685.61
2019-03-18T17:33:34.399Z,100683.69
2019-03-18T17:36:03.749Z,100690.47
2019-03-18T17:38:30.540Z,100686.94
2019-03-18T17:40:57.712Z,100701.02
2019-03-18T17:43:24.855Z,100700.62
2019-03-18T17:45:52.310Z,100705.52
2019-03-18T17:48:19.578Z,100706.14
2019-03-18T17:50:46.625Z,100709.70
2019-03-18T17:53:16.597Z,100717.20
2019-03-18T17:55:43.683Z,100718.89
2019-03-18T17:58:10.742Z,100725.66
2019-03-18T18:00:45.717Z,100734.98
2019-03-18T18:03:18.918Z,100737.30
2019-03-18T18:05:46.873Z,100736.80
2019-03-18T18:08:14.010Z,100737.91
2019-03-18T18:10:43.517Z,100740.94
2019-03-18T18:13:11.302Z,100746.02
2019-03-18T18:15:38.413Z,100753.34
2019-03-18T18:18:05.462Z,100752.49
2019-03-18T18:20:33.079Z,100758.50
2019-03-18T18:23:00.307Z,100758.16
2019-03-18T18:25:27.827Z,100760.33
2019-03-18T18:27:55.468Z,100759.70
2019-03-18T18:30:22.582Z,100770.77
2019-03-18T18:32:50.045Z,100778.98
2019-03-18T18:35:17.662Z,100779.44
2019-03-18T18:37:44.980Z,100779.06
2019-03-18T18:40:14.713Z,100789.39
2019-03-18T18:42:41.991Z,100796.43
2019-03-18T18:45:11.396Z,100804.23
2019-03-18T18:47:39.437Z,100797.23
2019-03-18T18:50:07.029Z,100800.27
2019-03-18T18:52:34.451Z,100806.39
2019-03-18T18:55:01.659Z,100810.72
2019-03-18T18:57:28.811Z,100807.97
2019-03-18T18:59:56.433Z,100815.39
2019-03-18T19:02:23.539Z,100808.94
2019-03-18T19:04:51.872Z,100819.42
2019-03-18T19:07:19.483Z,100817.03
2019-03-18T19:09:46.757Z,100821.75
2019-03-18T19:12:14.028Z,100825.02
2019-03-18T19:14:41.309Z,100831.16
2019-03-18T19:17:10.623Z,100832.60
2019-03-18T19:19:37.951Z,100841.68
2019-03-18T19:22:05.061Z,100839.50
2019-03-18T19:24:32.599Z,100837.25
2019-03-18T19:27:00.270Z,100843.13
2019-03-18T19:29:28.677Z,100848.78
2019-03-18T19:31:56.053Z,100854.47
2019-03-18T19:34:25.562Z,100855.77
2019-03-18T19:36:53.846Z,100857.29
2019-03-18T19:39:20.903Z,100861.42
2019-03-18T19:41:49.193Z,100861.86
2019-03-18T19:44:16.671Z,100861.05
2019-03-18T19:46:44.106Z,100867.54
2019-03-18T19:49:14.384Z,100873.44
2019-03-18T19:51:43.849Z,100877.25
2019-03-18T19:54:12.923Z,100878.30
2019-03-18T19:56:40.088Z,100884.88
2019-03-18T19:59:07.949Z,100883.89
2019-03-18T20:01:36.799Z,100884.75
2019-03-18T20:04:04.110Z,100887.33
2019-03-18T20:06:31.545Z,100889.42
2019-03-18T20:08:58.629Z,100886.23
2019-03-18T20:11:25.732Z,100895.56
2019-03-18T20:13:53.268Z,100898.51
2019-03-18T20:16:20.367Z,100899.31
2019-03-18T20:18:49.973Z,100903.39
2019-03-18T20:21:16.720Z,100905.35
2019-03-18T20:23:44.295Z,100903.73
2019-03-18T20:26:11.414Z,100911.32
2019-03-18T20:28:39.601Z,100905.96
2019-03-18T20:31:25.317Z,100910.38
2019-03-18T20:33:46.224Z,100910.42
2019-03-18T20:36:13.339Z,100907.66
2019-03-18T20:38:40.543Z,100909.15
2019-03-18T20:41:07.980Z,100905.59
2019-03-18T20:43:35.206Z,100911.59
2019-03-18T20:46:02.327Z,100908.64
2019-03-18T20:48:31.700Z,100916.97
2019-03-18T20:50:59.019Z,100925.34
2019-03-18T20:53:26.192Z,100930.16
2019-03-18T20:55:53.789Z,100927.58
2019-03-18T20:58:20.951Z,100937.72
2019-03-18T21:00:48.214Z,100938.64
2019-03-18T21:03:15.759Z,100945.16
2019-03-18T21:05:42.840Z,100947.23
2019-03-18T21:08:10.042Z,100950.13
2019-03-18T21:10:37.243Z,100960.75
2019-03-18T21:13:04.375Z,100956.91
2019-03-18T21:15:31.940Z,100961.98
2019-03-18T21:17:59.774Z,100961.39
2019-03-18T21:20:26.897Z,100960.11
2019-03-18T21:22:54.105Z,100962.56
2019-03-18T21:25:21.488Z,100964.92
2019-03-18T21:27:49.805Z,100968.11
2019-03-18T21:30:17.390Z,100974.17
2019-03-18T21:32:44.832Z,100967.50
2019-03-18T21:35:13.085Z,100960.39
2019-03-18T21:37:42.010Z,100961.41
2019-03-18T21:40:10.607Z,100965.77
2019-03-18T21:42:39.574Z,100967.66
2019-03-18T21:45:08.948Z,100971.94
2019-03-18T21:47:37.184Z,100975.71
2019-03-18T21:50:04.810Z,100977.05
2019-03-18T21:52:31.964Z,100982.66
2019-03-18T21:55:00.828Z,100977.52
2019-03-18T21:57:27.866Z,100982.94
2019-03-18T21:59:57.442Z,100991.42
2019-03-18T22:02:24.600Z,100987.23
2019-03-18T22:04:53.425Z,100988.86
2019-03-18T22:07:20.569Z,100990.78
2019-03-18T22:09:47.727Z,100989.13
2019-03-18T22:12:15.048Z,100985.95
2019-03-18T22:14:42.203Z,100992.48
2019-03-18T22:17:09.258Z,100996.21
2019-03-18T22:19:36.569Z,101000.94
2019-03-18T22:22:03.902Z,101000.13
2019-03-18T22:24:30.980Z,101003.06
2019-03-18T22:27:00.332Z,100999.80
2019-03-18T22:29:27.447Z,101002.70
2019-03-18T22:31:54.607Z,101007.98
2019-03-18T22:34:22.053Z,101010.93
2019-03-18T22:36:51.720Z,101013.18
2019-03-18T22:39:18.791Z,101017.09
2019-03-18T22:41:47.761Z,101015.06
2019-03-18T22:44:18.047Z,101019.47
2019-03-18T22:46:45.101Z,101014.17
2019-03-18T22:49:12.181Z,101010.77
2019-03-18T22:51:40.503Z,101016.52
2019-03-18T22:54:08.664Z,101018.54
2019-03-18T22:56:37.180Z,101022.66
2019-03-18T22:59:04.304Z,101015.53
2019-03-18T23:01:32.681Z,101011.01
2019-03-18T23:03:59.962Z,101017.00
2019-03-18T23:06:27.170Z,101018.47
2019-03-18T23:08:54.230Z,101020.19
2019-03-18T23:11:21.292Z,101016.75
2019-03-18T23:13:49.113Z,101022.73
2019-03-18T23:16:16.196Z,101026.69
2019-03-18T23:18:43.279Z,101028.46
2019-03-18T23:21:10.847Z,101023.22
2019-03-18T23:23:37.891Z,101024.56
2019-03-18T23:26:05.073Z,101029.97
2019-03-18T23:28:33.473Z,101033.55
2019-03-18T23:31:01.870Z,101039.20
2019-03-18T23:33:28.936Z,101039.48
2019-03-18T23:35:57.222Z,101038.12
2019-03-18T23:38:24.273Z,101037.88
2019-03-18T23:40:51.528Z,101035.38
2019-03-18T23:43:18.624Z,101047.56
2019-03-18T23:45:45.680Z,101058.70
2019-03-18T23:48:12.751Z,101055.74
2019-03-18T23:50:39.889Z,101062.48
2019-03-18T23:53:06.920Z,101066.34
2019-03-18T23:55:33.974Z,101069.22
2019-03-18T23:58:01.120Z,101061.95
